createdAt,value
2022-10-15T00:02:45.597Z,94301
2022-10-15T00:06:10.800Z,94319
2022-10-15T00:09:35.985Z,94324
2022-10-15T00:16:26.357Z,94315
2022-10-15T00:19:51.535Z,94317
2022-10-15T00:23:16.698Z,94302
2022-10-15T00:26:41.898Z,94294
2022-10-15T00:30:07.078Z,94291
2022-10-15T00:33:32.269Z,94280
2022-10-15T00:36:57.432Z,94272
2022-10-15T00:40:22.632Z,94275
2022-10-15T00:43:47.837Z,94278
2022-10-15T00:47:13.021Z,94287
2022-10-15T00:50:38.160Z,94283
2022-10-15T00:54:03.344Z,94285
2022-10-15T00:57:28.527Z,94275
2022-10-15T01:00:53.723Z,94273
2022-10-15T01:04:18.884Z,94270
2022-10-15T01:07:44.066Z,94264
2022-10-15T01:11:09.209Z,94263
2022-10-15T01:14:34.381Z,94264
2022-10-15T01:17:59.565Z,94260
2022-10-15T01:21:24.757Z,94266
2022-10-15T01:24:49.897Z,94270
2022-10-15T01:28:15.074Z,94263
2022-10-15T01:31:40.231Z,94253
2022-10-15T01:35:05.399Z,94252
2022-10-15T01:38:30.629Z,94251
2022-10-15T01:41:55.782Z,94255
2022-10-15T01:45:20.944Z,94256
2022-10-15T01:48:46.669Z,94254
2022-10-15T01:52:11.874Z,94254
2022-10-15T01:55:37.077Z,94260
2022-10-15T01:59:02.246Z,94251
2022-10-15T02:02:27.417Z,94241
2022-10-15T02:05:52.583Z,94241
2022-10-15T02:09:17.765Z,94233
2022-10-15T02:12:42.980Z,94230
2022-10-15T02:16:08.145Z,94223
2022-10-15T02:19:33.339Z,94223
2022-10-15T02:22:58.511Z,94214
2022-10-15T02:26:23.702Z,94217
2022-10-15T02:29:48.890Z,94212
2022-10-15T02:33:14.082Z,94215
2022-10-15T02:36:39.258Z,94214
2022-10-15T02:40:04.451Z,94208
2022-10-15T02:43:29.624Z,94199
2022-10-15T02:46:54.804Z,94199
2022-10-15T02:50:19.951Z,94196
2022-10-15T02:53:45.131Z,94198
2022-10-15T02:57:10.306Z,94195
2022-10-15T03:00:35.480Z,94190
2022-10-15T03:04:00.659Z,94189
2022-10-15T03:07:28.089Z,94183
2022-10-15T03:10:53.255Z,94186
2022-10-15T03:14:18.474Z,94179
2022-10-15T03:17:43.568Z,94173
2022-10-15T03:21:08.750Z,94167
2022-10-15T03:24:33.880Z,94168
2022-10-15T03:27:59.086Z,94166
2022-10-15T03:31:24.273Z,94163
2022-10-15T03:34:49.464Z,94160
2022-10-15T03:38:14.701Z,94162
2022-10-15T03:41:39.945Z,94173
2022-10-15T03:45:05.055Z,94178
2022-10-15T03:48:30.239Z,94174
2022-10-15T03:51:55.434Z,94177
2022-10-15T03:55:20.645Z,94178
2022-10-15T03:58:45.803Z,94172
2022-10-15T04:02:10.976Z,94173
2022-10-15T04:05:36.164Z,94173
2022-10-15T04:09:01.341Z,94168
2022-10-15T04:12:26.760Z,94160
2022-10-15T04:15:51.722Z,94164
2022-10-15T04:19:16.899Z,94172
2022-10-15T04:22:42.100Z,94178
2022-10-15T04:26:07.271Z,94185
2022-10-15T04:29:32.480Z,94192
2022-10-15T04:32:57.644Z,94195
2022-10-15T04:36:22.817Z,94193
2022-10-15T04:39:47.981Z,94189
2022-10-15T04:43:13.181Z,94189
2022-10-15T04:46:38.404Z,94183
2022-10-15T04:50:03.562Z,94188
2022-10-15T04:53:28.758Z,94187
2022-10-15T04:56:53.962Z,94183
2022-10-15T05:00:19.141Z,94180
2022-10-15T05:03:45.052Z,94173
2022-10-15T05:07:09.475Z,94177
2022-10-15T05:10:34.695Z,94178
2022-10-15T05:13:59.838Z,94175
2022-10-15T05:17:25.443Z,94173
2022-10-15T05:20:50.237Z,94170
2022-10-15T05:24:15.404Z,94178
2022-10-15T05:27:40.557Z,94178
2022-10-15T05:31:05.747Z,94186
2022-10-15T05:34:30.911Z,94187
2022-10-15T05:37:56.162Z,94179
2022-10-15T05:41:21.308Z,94179
2022-10-15T05:44:46.466Z,94189
2022-10-15T05:48:11.654Z,94195
2022-10-15T05:51:36.859Z,94186
2022-10-15T05:55:02.084Z,94202
2022-10-15T05:58:27.273Z,94194
2022-10-15T06:01:53.079Z,94199
2022-10-15T06:05:17.664Z,94194
2022-10-15T06:08:42.934Z,94193
2022-10-15T06:12:08.157Z,94204
2022-10-15T06:15:33.331Z,94203
2022-10-15T06:18:58.533Z,94203
2022-10-15T06:22:23.747Z,94190
2022-10-15T06:25:48.852Z,94194
2022-10-15T06:29:14.020Z,94196
2022-10-15T06:32:39.191Z,94203
2022-10-15T06:36:04.371Z,94217
2022-10-15T06:39:29.526Z,94222
2022-10-15T06:42:54.676Z,94228
2022-10-15T06:46:19.899Z,94230
2022-10-15T06:49:45.099Z,94234
2022-10-15T06:53:10.362Z,94236
2022-10-15T06:56:35.522Z,94239
2022-10-15T07:00:01.183Z,94244
2022-10-15T07:03:26.362Z,94251
2022-10-15T07:06:51.509Z,94251
2022-10-15T07:10:16.754Z,94252
2022-10-15T07:13:41.874Z,94258
2022-10-15T07:17:07.057Z,94259
2022-10-15T07:20:32.257Z,94263
2022-10-15T07:23:58.138Z,94269
2022-10-15T07:27:23.337Z,94281
2022-10-15T07:30:48.512Z,94275
2022-10-15T07:34:13.887Z,94271
2022-10-15T07:37:39.070Z,94276
2022-10-15T07:41:04.220Z,94282
2022-10-15T07:44:29.377Z,94284
2022-10-15T07:47:54.563Z,94287
2022-10-15T07:51:19.758Z,94294
2022-10-15T07:54:44.943Z,94304
2022-10-15T07:58:10.129Z,94303
2022-10-15T08:01:35.332Z,94296
2022-10-15T08:05:00.509Z,94307
2022-10-15T08:08:25.682Z,94297
2022-10-15T08:11:50.853Z,94301
2022-10-15T08:15:15.994Z,94312
2022-10-15T08:18:41.240Z,94315
2022-10-15T08:22:06.385Z,94327
2022-10-15T08:25:31.599Z,94325
2022-10-15T08:28:56.929Z,94329
2022-10-15T08:32:22.311Z,94339
2022-10-15T08:35:47.219Z,94341
2022-10-15T08:39:12.518Z,94347
2022-10-15T08:42:37.566Z,94342
2022-10-15T08:46:02.888Z,94347
2022-10-15T08:49:27.942Z,94346
2022-10-15T08:52:53.112Z,94349
2022-10-15T08:56:18.348Z,94353
2022-10-15T08:59:43.504Z,94365
2022-10-15T09:03:08.796Z,94368
2022-10-15T09:06:33.852Z,94367
2022-10-15T09:09:59.062Z,94376
2022-10-15T09:13:24.323Z,94382
2022-10-15T09:16:49.419Z,94384
2022-10-15T09:20:14.627Z,94376
2022-10-15T09:23:39.805Z,94377
2022-10-15T09:27:04.961Z,94369
2022-10-15T09:30:30.165Z,94369
2022-10-15T09:33:55.384Z,94378
2022-10-15T09:37:20.572Z,94391
2022-10-15T09:40:45.749Z,94396
2022-10-15T09:44:10.940Z,94398
2022-10-15T09:47:36.100Z,94397
2022-10-15T09:51:01.259Z,94403
2022-10-15T09:54:26.449Z,94400
2022-10-15T09:57:51.605Z,94401
2022-10-15T10:01:16.781Z,94395
2022-10-15T10:04:41.953Z,94392
2022-10-15T10:08:07.131Z,94399
2022-10-15T10:11:32.462Z,94408
2022-10-15T10:14:57.457Z,94410
2022-10-15T10:18:22.628Z,94408
2022-10-15T10:21:47.804Z,94415
2022-10-15T10:25:12.962Z,94419
2022-10-15T10:28:39.375Z,94421
2022-10-15T10:32:03.310Z,94426
2022-10-15T10:35:28.483Z,94422
2022-10-15T10:38:53.666Z,94425
2022-10-15T10:42:18.835Z,94430
2022-10-15T10:45:45.335Z,94435
2022-10-15T10:49:09.174Z,94435
2022-10-15T10:52:34.336Z,94435
2022-10-15T10:55:59.498Z,94438
2022-10-15T10:59:24.661Z,94443
2022-10-15T11:02:49.849Z,94443
2022-10-15T11:06:14.990Z,94436
2022-10-15T11:09:40.151Z,94435
2022-10-15T11:13:30.334Z,94438
2022-10-15T11:17:08.850Z,94437
2022-10-15T11:20:48.516Z,94437
2022-10-15T11:23:59.184Z,94436
2022-10-15T11:27:24.693Z,94438
2022-10-15T11:30:49.504Z,94446
2022-10-15T11:34:14.664Z,94459
2022-10-15T11:37:39.846Z,94457
2022-10-15T11:41:04.989Z,94460
2022-10-15T11:44:30.132Z,94455
2022-10-15T11:47:55.290Z,94460
2022-10-15T11:51:33.935Z,94467
2022-10-15T11:55:04.599Z,94459
2022-10-15T11:58:29.753Z,94463
2022-10-15T12:01:54.910Z,94465
2022-10-15T12:05:20.090Z,94465
2022-10-15T12:08:45.238Z,94457
2022-10-15T12:12:10.412Z,94451
2022-10-15T12:15:35.536Z,94453
2022-10-15T12:19:00.702Z,94446
2022-10-15T12:22:28.614Z,94445
2022-10-15T12:25:51.182Z,94438
2022-10-15T12:29:16.361Z,94436
2022-10-15T12:32:41.521Z,94434
2022-10-15T12:36:06.753Z,94430
2022-10-15T12:40:01.484Z,94429
2022-10-15T12:42:57.143Z,94432
2022-10-15T12:46:22.343Z,94435
2022-10-15T12:49:47.516Z,94434
2022-10-15T12:53:12.685Z,94447
2022-10-15T12:56:37.874Z,94449
2022-10-15T13:00:03.057Z,94452
2022-10-15T13:03:28.244Z,94447
2022-10-15T13:06:53.399Z,94453
2022-10-15T13:10:18.595Z,94451
2022-10-15T13:13:43.774Z,94450
2022-10-15T13:17:08.960Z,94438
2022-10-15T13:20:34.275Z,94437
2022-10-15T13:23:59.483Z,94435
2022-10-15T13:27:24.662Z,94438
2022-10-15T13:30:49.820Z,94436
2022-10-15T13:34:14.980Z,94438
2022-10-15T13:37:40.169Z,94444
2022-10-15T13:41:05.370Z,94447
2022-10-15T13:44:30.569Z,94453
2022-10-15T13:47:55.790Z,94453
2022-10-15T13:51:21.025Z,94452
2022-10-15T13:54:46.271Z,94443
2022-10-15T13:58:11.418Z,94446
2022-10-15T14:01:36.644Z,94430
2022-10-15T14:05:01.843Z,94429
2022-10-15T14:08:27.180Z,94447
2022-10-15T14:11:52.489Z,94440
2022-10-15T14:15:20.038Z,94433
2022-10-15T14:18:48.095Z,94432
2022-10-15T14:22:11.251Z,94441
2022-10-15T14:25:36.451Z,94442
2022-10-15T14:29:01.774Z,94443
2022-10-15T15:05:29.613Z,94456
2022-10-15T15:08:54.766Z,94472
2022-10-15T15:12:20.770Z,94465
2022-10-15T15:15:45.202Z,94464
2022-10-15T15:19:10.360Z,94458
2022-10-15T15:22:35.545Z,94454
2022-10-15T15:26:00.701Z,94453
2022-10-15T15:29:25.870Z,94450
2022-10-15T15:32:51.059Z,94458
2022-10-15T15:36:17.618Z,94458
2022-10-15T15:39:41.415Z,94465
2022-10-15T15:43:06.554Z,94464
2022-10-15T15:46:31.714Z,94461
2022-10-15T15:49:56.874Z,94460
2022-10-15T15:53:22.077Z,94465
2022-10-15T15:56:47.305Z,94472
2022-10-15T16:00:12.488Z,94472
2022-10-15T16:03:37.647Z,94480
2022-10-15T16:07:02.797Z,94476
2022-10-15T16:10:27.990Z,94478
2022-10-15T16:13:53.225Z,94465
2022-10-15T16:17:18.356Z,94464
2022-10-15T16:20:46.427Z,94468
2022-10-15T16:24:08.698Z,94461
2022-10-15T16:27:33.875Z,94468
2022-10-15T16:30:59.035Z,94478
2022-10-15T16:34:24.174Z,94478
2022-10-15T16:37:49.388Z,94480
2022-10-15T16:41:14.546Z,94477
2022-10-15T16:44:39.702Z,94486
2022-10-15T16:48:04.903Z,94482
2022-10-15T16:54:55.199Z,94492
2022-10-15T16:58:20.379Z,94496
2022-10-15T17:01:45.580Z,94500
2022-10-15T17:05:10.780Z,94512
2022-10-15T17:08:35.944Z,94522
2022-10-15T17:12:01.093Z,94505
2022-10-15T17:15:26.260Z,94517
2022-10-15T17:22:16.610Z,94519
2022-10-15T17:25:41.792Z,94522
2022-10-15T17:29:06.971Z,94529
2022-10-15T17:32:32.145Z,94523
2022-10-15T17:35:57.341Z,94513
2022-10-15T17:39:22.560Z,94525
2022-10-15T17:42:47.707Z,94519
2022-10-15T17:46:12.866Z,94522
2022-10-15T17:49:38.056Z,94527
2022-10-15T17:53:03.244Z,94533
2022-10-15T17:56:28.427Z,94529
2022-10-15T17:59:53.583Z,94530
2022-10-15T18:03:18.790Z,94547
2022-10-15T18:06:43.969Z,94557
2022-10-15T18:10:09.172Z,94564
2022-10-15T18:13:34.347Z,94550
2022-10-15T18:16:59.501Z,94548
2022-10-15T18:20:24.704Z,94561
2022-10-15T18:23:49.863Z,94553
2022-10-15T18:27:15.033Z,94562
2022-10-15T18:30:40.236Z,94560
2022-10-15T18:34:05.379Z,94563
2022-10-15T18:37:30.545Z,94562
2022-10-15T18:40:55.698Z,94559
2022-10-15T18:44:20.908Z,94558
2022-10-15T18:47:46.129Z,94560
2022-10-15T18:51:11.240Z,94560
2022-10-15T18:54:36.406Z,94551
2022-10-15T18:58:01.587Z,94559
2022-10-15T19:01:26.812Z,94575
2022-10-15T19:04:51.955Z,94579
2022-10-15T19:08:20.562Z,94579
2022-10-15T19:11:42.291Z,94587
2022-10-15T19:15:07.455Z,94590
2022-10-15T19:18:32.610Z,94587
2022-10-15T19:21:57.795Z,94584
2022-10-15T19:25:22.988Z,94581
2022-10-15T19:28:48.329Z,94587
2022-10-15T19:32:13.318Z,94594
2022-10-15T19:35:38.524Z,94596
2022-10-15T19:39:03.713Z,94596
2022-10-15T19:42:28.864Z,94598
2022-10-15T19:45:54.073Z,94604
2022-10-15T19:49:19.228Z,94611
2022-10-15T19:52:44.408Z,94610
2022-10-15T19:56:09.601Z,94612
2022-10-15T19:59:34.748Z,94621
2022-10-15T20:02:59.970Z,94618
2022-10-15T20:06:25.170Z,94629
2022-10-15T20:09:50.339Z,94624
2022-10-15T20:13:15.580Z,94637
2022-10-15T20:16:40.742Z,94639
2022-10-15T20:20:05.911Z,94648
2022-10-15T20:23:31.081Z,94653
2022-10-15T20:26:56.245Z,94671
2022-10-15T20:30:21.463Z,94663
2022-10-15T20:33:50.897Z,94675
2022-10-15T20:37:16.081Z,94678
2022-10-15T20:40:41.248Z,94683
2022-10-15T20:44:06.426Z,94687
2022-10-15T20:47:31.635Z,94684
2022-10-15T20:50:56.793Z,94689
2022-10-15T20:54:21.950Z,94684
2022-10-15T20:57:47.128Z,94695
2022-10-15T21:01:12.355Z,94689
2022-10-15T21:04:37.527Z,94686
2022-10-15T21:08:02.658Z,94685
2022-10-15T21:11:27.827Z,94687
2022-10-15T21:14:53.037Z,94688
2022-10-15T21:18:18.216Z,94691
2022-10-15T21:21:43.415Z,94687
2022-10-15T21:25:08.573Z,94688
2022-10-15T21:28:33.839Z,94696
2022-10-15T21:31:58.917Z,94693
2022-10-15T21:35:24.105Z,94688
2022-10-15T21:38:49.306Z,94692
2022-10-15T21:42:14.479Z,94690
2022-10-15T21:45:39.633Z,94690
2022-10-15T21:49:04.781Z,94692
2022-10-15T21:52:29.960Z,94699
2022-10-15T21:55:55.161Z,94694
2022-10-15T21:59:20.285Z,94698
2022-10-15T22:02:45.448Z,94709
2022-10-15T22:06:10.627Z,94718
2022-10-15T22:09:35.824Z,94724
2022-10-15T22:13:01.025Z,94718
2022-10-15T22:16:26.188Z,94720
2022-10-15T22:19:51.355Z,94720
2022-10-15T22:23:16.510Z,94714
2022-10-15T22:26:41.649Z,94711
2022-10-15T22:30:06.878Z,94707
2022-10-15T22:33:32.011Z,94708
2022-10-15T22:36:57.183Z,94722
2022-10-15T22:40:22.375Z,94722
2022-10-15T22:43:47.569Z,94721
2022-10-15T22:47:12.756Z,94724
2022-10-15T22:50:37.878Z,94720
2022-10-15T22:54:03.067Z,94714
2022-10-15T22:57:28.228Z,94721
2022-10-15T23:00:53.450Z,94716
2022-10-15T23:04:18.626Z,94722
2022-10-15T23:07:43.768Z,94726
2022-10-15T23:11:09.350Z,94724
2022-10-15T23:14:34.146Z,94725
2022-10-15T23:17:59.296Z,94727
2022-10-15T23:21:24.494Z,94726
2022-10-15T23:24:49.649Z,94731
2022-10-15T23:28:14.813Z,94741
2022-10-15T23:31:40.010Z,94742
2022-10-15T23:35:05.189Z,94755
2022-10-15T23:38:30.380Z,94768
2022-10-15T23:41:55.480Z,94762
2022-10-15T23:45:20.643Z,94745
2022-10-15T23:48:45.844Z,94746
2022-10-15T23:52:10.996Z,94757
2022-10-15T23:55:36.161Z,94764
2022-10-15T23:59:01.313Z,94771
